Time;durP1;ratioP1;P1;durP2;ratioP2;P2;SDS_P1;SDS_P2;PMS_P1;PMS_P2;Temp;Humidity;BMP_temperature;BMP_pressure;BME280_temperature;BME280_humidity;BME280_pressure;Samples;Min_cycle;Max_cycle;Signal;HPM_P1;HPM_P2
2023/08/20 00:00:07;;;;;;;8.88;5.65;;;;;;;24.89;nan;95481.22;5071473;28;20566;-82
2023/08/20 00:02:37;;;;;;;11.63;6.07;;;;;;;25.03;nan;95507.88;5071787;28;20060;-81
2023/08/20 00:05:03;;;;;;;10.40;6.07;;;;;;;24.99;nan;95499.69;5072832;28;20040;-81
2023/08/20 00:07:31;;;;;;;13.50;6.18;;;;;;;25.01;nan;95499.34;5073538;28;20036;-81
2023/08/20 00:09:56;;;;;;;13.07;5.97;;;;;;;25.03;nan;95515.25;5070784;28;20452;-81
2023/08/20 00:12:22;;;;;;;12.15;6.15;;;;;;;24.76;nan;95474.38;5072631;28;20085;-81
2023/08/20 00:14:56;;;;;;;8.15;5.60;;;;;;;24.41;nan;95409.34;5072298;28;20037;-81
2023/08/20 00:17:24;;;;;;;11.95;6.18;;;;;;;24.02;nan;95358.94;5071184;28;20406;-81
2023/08/20 00:19:50;;;;;;;11.38;6.30;;;;;;;24.97;nan;95503.88;5072614;28;20036;-81
2023/08/20 00:22:16;;;;;;;10.05;6.20;;;;;;;24.80;nan;95490.72;5070399;28;20036;-82
2023/08/20 00:24:42;;;;;;;10.40;6.35;;;;;;;25.02;nan;95508.25;5072973;28;20106;-81
2023/08/20 00:27:08;;;;;;;8.75;6.00;;;;;;;24.90;nan;95499.13;5071222;28;20473;-81
2023/08/20 00:29:33;;;;;;;11.02;6.68;;;;;;;24.65;nan;95469.88;5072573;28;20040;-81
2023/08/20 00:31:58;;;;;;;8.43;6.65;;;;;;;24.90;nan;95518.09;5070863;28;20035;-81
2023/08/20 00:34:24;;;;;;;12.80;6.68;;;;;;;24.66;nan;95482.28;5072449;28;20028;-81
2023/08/20 00:36:49;;;;;;;14.95;7.07;;;;;;;24.63;nan;95480.31;5072432;28;20058;-81
2023/08/20 00:39:15;;;;;;;13.38;7.28;;;;;;;24.83;nan;95517.13;5073445;28;20120;-81
2023/08/20 00:41:41;;;;;;;11.73;6.25;;;;;;;24.66;nan;95493.91;5070789;28;20045;-81
2023/08/20 00:44:06;;;;;;;15.60;6.38;;;;;;;24.64;nan;95500.88;5072846;28;20143;-81
2023/08/20 00:46:32;;;;;;;9.23;6.25;;;;;;;24.65;nan;95508.63;5073075;28;20024;-81
2023/08/20 00:48:57;;;;;;;9.25;6.70;;;;;;;24.66;nan;95510.19;5072171;28;20398;-81
2023/08/20 00:51:24;;;;;;;18.75;7.07;;;;;;;24.47;nan;95478.44;5070417;28;20031;-81
2023/08/20 00:53:50;;;;;;;12.43;6.38;;;;;;;24.63;nan;95494.66;5071587;28;20025;-81
2023/08/20 00:56:16;;;;;;;13.30;6.45;;;;;;;24.68;nan;95516.06;5072675;28;20108;-81
2023/08/20 00:58:42;;;;;;;10.75;6.68;;;;;;;24.68;nan;95516.06;5070874;28;20036;-82
2023/08/20 01:01:07;;;;;;;13.70;6.68;;;;;;;24.51;nan;95473.84;5070967;28;20028;-81
2023/08/20 01:03:33;;;;;;;14.15;6.85;;;;;;;24.58;nan;95492.97;5070914;28;20025;-81
2023/08/20 01:06:20;;;;;;;10.65;7.22;;;;;;;24.23;nan;95433.38;5070657;28;20036;-81
2023/08/20 01:08:51;;;;;;;13.82;7.05;;;;;;;24.65;nan;95500.47;5055535;28;20040;-81
2023/08/20 01:11:24;;;;;;;14.23;6.15;;;;;;;24.33;nan;95461.06;5071530;28;20028;-81
2023/08/20 01:13:50;;;;;;;10.98;6.97;;;;;;;24.58;nan;95503.84;5070356;28;20021;-81
2023/08/20 01:16:15;;;;;;;13.20;6.90;;;;;;;24.26;nan;95458.22;5071162;28;20028;-81
2023/08/20 01:18:41;;;;;;;10.15;6.15;;;;;;;24.54;nan;95513.81;5070666;28;20049;-81
2023/08/20 01:21:23;;;;;;;9.93;6.30;;;;;;;24.44;nan;95503.53;5071122;28;20043;-81
2023/08/20 01:23:51;;;;;;;10.15;6.95;;;;;;;24.51;nan;95506.38;5071835;28;20495;-81
2023/08/20 01:26:35;;;;;;;10.52;7.30;;;;;;;24.46;nan;95505.88;5051730;28;20033;-81
2023/08/20 01:29:01;;;;;;;11.45;7.32;;;;;;;24.22;nan;95474.38;5071784;28;20028;-81
2023/08/20 01:31:28;;;;;;;11.30;7.45;;;;;;;23.93;nan;95437.69;5071981;28;20032;-81
2023/08/20 01:33:54;;;;;;;9.98;6.80;;;;;;;24.31;nan;95493.94;5069973;28;20031;-81
2023/08/20 01:36:19;;;;;;;15.48;7.68;;;;;;;24.23;nan;95487.56;5070306;28;20028;-81
2023/08/20 01:38:45;;;;;;;9.07;6.80;;;;;;;23.69;nan;95418.94;5069429;28;20127;-81
2023/08/20 01:41:10;;;;;;;16.40;7.38;;;;;;;24.07;nan;95448.84;5070555;28;20452;-81
2023/08/20 01:43:36;;;;;;;10.57;6.68;;;;;;;24.27;nan;95470.59;5071710;28;20037;-81
2023/08/20 01:46:01;;;;;;;14.00;6.72;;;;;;;24.27;nan;95476.81;5071588;28;20107;-80
2023/08/20 01:48:27;;;;;;;13.80;7.13;;;;;;;24.15;nan;95447.88;5069901;28;20033;-81
2023/08/20 01:50:52;;;;;;;9.68;6.72;;;;;;;23.76;nan;95381.19;5072074;28;20517;-81
2023/08/20 01:53:17;;;;;;;11.05;7.13;;;;;;;23.85;nan;95412.38;5072191;28;20032;-81
2023/08/20 01:55:43;;;;;;;16.85;7.72;;;;;;;23.84;nan;95399.19;5070239;28;20134;-81
2023/08/20 01:58:08;;;;;;;12.40;7.30;;;;;;;24.33;nan;95480.03;5070313;28;20035;-81
2023/08/20 02:00:34;;;;;;;13.95;7.45;;;;;;;24.05;nan;95424.03;5070487;28;20037;-81
2023/08/20 02:02:59;;;;;;;13.98;7.00;;;;;;;24.35;nan;95466.91;5069792;28;20024;-81
2023/08/20 02:05:25;;;;;;;9.68;7.53;;;;;;;23.84;nan;95388.34;5069536;28;20029;-81
2023/08/20 02:07:50;;;;;;;12.25;7.72;;;;;;;24.17;nan;95437.47;5071476;28;20345;-81
2023/08/20 02:10:16;;;;;;;16.35;7.45;;;;;;;23.56;nan;95347.88;5069746;28;20075;-81
2023/08/20 02:12:41;;;;;;;8.68;7.13;;;;;;;24.23;nan;95440.72;5070592;28;20028;-80
2023/08/20 02:15:08;;;;;;;11.93;7.50;;;;;;;23.89;nan;95384.56;5070107;28;20151;-81
2023/08/20 02:17:35;;;;;;;11.48;7.97;;;;;;;23.60;nan;95346.03;5070582;28;20041;-81
2023/08/20 02:20:03;;;;;;;11.02;7.35;;;;;;;23.75;nan;95358.75;5071226;28;20111;-81
2023/08/20 02:22:29;;;;;;;13.98;7.40;;;;;;;24.00;nan;95416.19;5069447;28;20051;-81
2023/08/20 02:24:55;;;;;;;13.98;8.07;;;;;;;24.08;nan;95415.22;5069111;28;20417;-80
2023/08/20 02:27:20;;;;;;;14.38;6.93;;;;;;;23.78;nan;95374.31;5069074;28;20395;-80
2023/08/20 02:29:46;;;;;;;15.35;7.18;;;;;;;24.11;nan;95440.78;5069643;28;20043;-80
2023/08/20 02:32:11;;;;;;;14.02;7.85;;;;;;;24.08;nan;95415.22;5069530;28;20032;-81
2023/08/20 02:34:36;;;;;;;14.00;7.93;;;;;;;24.28;nan;95442.34;5069401;28;20451;-81
2023/08/20 02:37:02;;;;;;;11.73;7.55;;;;;;;23.85;nan;95401.53;5071117;28;20044;-81
2023/08/20 02:39:27;;;;;;;13.02;7.90;;;;;;;24.16;nan;95448.66;5071329;28;20041;-80
2023/08/20 02:41:53;;;;;;;19.60;7.90;;;;;;;24.13;nan;95441.22;5070662;28;20437;-81
2023/08/20 02:44:18;;;;;;;13.20;7.32;;;;;;;23.88;nan;95391.91;5070648;28;20036;-80
2023/08/20 02:46:44;;;;;;;14.73;7.03;;;;;;;23.90;nan;95419.44;5068366;28;20028;-81
2023/08/20 02:49:10;;;;;;;13.90;7.47;;;;;;;24.21;nan;95465.47;5068445;28;20121;-80
2023/08/20 02:51:36;;;;;;;12.90;6.82;;;;;;;23.72;nan;95389.25;5070437;28;20029;-80
2023/08/20 02:54:01;;;;;;;13.43;7.18;;;;;;;24.04;nan;95424.38;5069488;28;20472;-80
2023/08/20 02:56:27;;;;;;;10.80;7.72;;;;;;;23.75;nan;95395.88;5068771;28;20140;-80
2023/08/20 02:58:52;;;;;;;12.60;7.72;;;;;;;24.09;nan;95443.09;5070769;28;20040;-80
2023/08/20 03:01:22;;;;;;;14.95;8.25;;;;;;;24.16;nan;95463.00;5072423;28;20433;-81
2023/08/20 03:03:48;;;;;;;10.23;7.20;;;;;;;23.90;nan;95429.47;5073159;28;20044;-80
2023/08/20 03:06:13;;;;;;;15.98;7.50;;;;;;;23.74;nan;95408.63;5072243;28;20059;-80
2023/08/20 03:08:39;;;;;;;15.98;7.90;;;;;;;23.75;nan;95422.94;5072290;28;20032;-80
2023/08/20 03:11:04;;;;;;;15.48;7.30;;;;;;;24.03;nan;95472.34;5073550;28;20041;-81
2023/08/20 03:13:31;;;;;;;10.45;7.80;;;;;;;23.52;nan;95390.31;5074310;28;20036;-81
2023/08/20 03:15:56;;;;;;;13.65;8.00;;;;;;;23.62;nan;95421.47;5074284;28;20032;-81
2023/08/20 03:18:22;;;;;;;13.57;8.38;;;;;;;23.99;nan;95471.50;5074166;28;20053;-81
2023/08/20 03:20:47;;;;;;;11.70;8.18;;;;;;;23.60;nan;95419.13;5072278;28;20032;-82
2023/08/20 03:23:13;;;;;;;11.50;7.28;;;;;;;23.44;nan;95402.06;5073683;28;20032;-82
2023/08/20 03:25:39;;;;;;;14.73;8.48;;;;;;;23.71;nan;95468.13;5072251;28;20044;-81
2023/08/20 03:28:04;;;;;;;17.58;8.23;;;;;;;23.82;nan;95469.94;5074338;28;20039;-81
2023/08/20 03:30:31;;;;;;;18.33;8.32;;;;;;;22.98;nan;95409.00;5074226;28;20033;-82
2023/08/20 03:32:56;;;;;;;15.50;8.25;;;;;;;23.39;nan;95459.94;5074231;28;20100;-82
2023/08/20 03:35:22;;;;;;;16.83;8.85;;;;;;;23.61;nan;95474.03;5074044;28;20051;-82
2023/08/20 03:37:48;;;;;;;18.85;8.82;;;;;;;23.28;nan;95429.13;5074034;28;20091;-82
2023/08/20 03:40:13;;;;;;;18.27;8.43;;;;;;;23.45;nan;95453.13;5072109;28;20032;-82
2023/08/20 03:42:39;;;;;;;19.67;8.48;;;;;;;23.52;nan;95462.59;5072555;28;20483;-81
2023/08/20 03:45:05;;;;;;;14.98;8.23;;;;;;;23.59;nan;95470.91;5072266;28;20368;-82
2023/08/20 03:47:30;;;;;;;18.75;8.98;;;;;;;23.46;nan;95452.00;5072303;28;20119;-82
2023/08/20 03:49:55;;;;;;;16.50;8.88;;;;;;;23.63;nan;95461.75;5072262;28;20033;-81
2023/08/20 03:52:21;;;;;;;15.75;8.15;;;;;;;23.38;nan;95425.91;5073506;28;20032;-81
2023/08/20 03:54:46;;;;;;;14.63;8.13;;;;;;;23.34;nan;95435.88;5073682;28;20040;-81
2023/08/20 03:57:12;;;;;;;12.70;8.13;;;;;;;23.44;nan;95443.44;5071364;28;20032;-82
2023/08/20 03:59:37;;;;;;;20.45;9.07;;;;;;;22.95;nan;95378.06;5071289;28;20046;-81
2023/08/20 04:02:03;;;;;;;18.92;8.63;;;;;;;23.41;nan;95446.09;5071990;28;20033;-82
2023/08/20 04:04:28;;;;;;;12.45;7.63;;;;;;;23.09;nan;95391.16;5071519;28;20062;-82
2023/08/20 04:06:54;;;;;;;14.00;8.93;;;;;;;23.25;nan;95423.63;5071445;28;20029;-82
2023/08/20 04:09:19;;;;;;;18.48;8.48;;;;;;;23.23;nan;95448.31;5071003;28;20049;-82
2023/08/20 04:11:44;;;;;;;14.25;8.50;;;;;;;23.12;nan;95422.09;5073321;28;20064;-81
2023/08/20 04:14:10;;;;;;;20.13;8.82;;;;;;;23.40;nan;95461.53;5072800;28;20457;-82
2023/08/20 04:16:35;;;;;;;17.20;8.57;;;;;;;22.92;nan;95394.16;5071265;28;20443;-82
2023/08/20 04:19:01;;;;;;;20.75;8.00;;;;;;;22.91;nan;95395.28;5072404;28;20504;-82
2023/08/20 04:21:26;;;;;;;11.55;8.38;;;;;;;23.07;nan;95423.16;5071402;28;20037;-81
2023/08/20 04:23:53;;;;;;;16.00;9.00;;;;;;;22.89;nan;95416.47;5072600;28;20051;-82
2023/08/20 04:26:18;;;;;;;12.30;9.02;;;;;;;23.02;nan;95437.72;5071170;28;20119;-82
2023/08/20 04:28:44;;;;;;;17.00;9.07;;;;;;;23.14;nan;95450.41;5070765;28;20033;-82
2023/08/20 04:31:09;;;;;;;22.58;9.85;;;;;;;23.11;nan;95451.09;5070561;28;20045;-82
2023/08/20 04:33:35;;;;;;;19.33;8.88;;;;;;;23.17;nan;95468.66;5072325;28;20044;-82
2023/08/20 04:36:01;;;;;;;11.75;8.32;;;;;;;23.18;nan;95450.50;5072501;28;20064;-82
2023/08/20 04:38:27;;;;;;;18.05;9.20;;;;;;;22.98;nan;95428.72;5072183;28;20032;-82
2023/08/20 04:40:52;;;;;;;14.52;8.73;;;;;;;23.11;nan;95451.09;5072469;28;20028;-81
2023/08/20 04:43:17;;;;;;;17.75;7.80;;;;;;;23.29;nan;95465.06;5072372;28;20498;-83
2023/08/20 04:45:43;;;;;;;16.90;9.70;;;;;;;23.28;nan;95468.91;5070963;28;20032;-82
2023/08/20 04:48:08;;;;;;;15.80;9.38;;;;;;;22.94;nan;95440.59;5072392;28;20122;-82
2023/08/20 04:50:34;;;;;;;15.73;8.70;;;;;;;22.91;nan;95425.03;5070578;28;20070;-81
2023/08/20 04:52:59;;;;;;;19.08;9.02;;;;;;;22.98;nan;95446.88;5071975;28;20029;-81
2023/08/20 04:55:26;;;;;;;17.30;8.80;;;;;;;22.89;nan;95425.38;5072819;28;20408;-81
2023/08/20 04:57:51;;;;;;;15.48;9.35;;;;;;;23.08;nan;95441.75;5070413;28;20040;-82
2023/08/20 05:00:17;;;;;;;18.02;8.32;;;;;;;23.13;nan;95439.91;5053566;28;20035;-81
2023/08/20 05:02:42;;;;;;;18.63;8.73;;;;;;;23.25;nan;95467.72;5072126;28;20048;-80
2023/08/20 05:05:08;;;;;;;16.20;8.82;;;;;;;22.97;nan;95424.44;5070308;28;20036;-80
2023/08/20 05:07:33;;;;;;;17.92;9.95;;;;;;;23.07;nan;95444.78;5069709;28;20144;-81
2023/08/20 05:09:59;;;;;;;22.25;10.10;;;;;;;23.26;nan;95438.72;5071209;28;20048;-80
2023/08/20 05:12:24;;;;;;;17.10;10.52;;;;;;;23.35;nan;95453.66;5072188;28;20061;-80
2023/08/20 05:14:50;;;;;;;16.55;10.48;;;;;;;23.14;nan;95403.63;5070346;28;20048;-80
2023/08/20 05:17:15;;;;;;;20.23;10.70;;;;;;;23.69;nan;95482.00;5069963;28;20055;-81
2023/08/20 05:19:40;;;;;;;23.33;10.82;;;;;;;23.75;nan;95477.88;5072045;28;20033;-81
2023/08/20 05:22:06;;;;;;;24.55;11.63;;;;;;;23.77;nan;95485.66;5070784;28;20037;-80
2023/08/20 05:24:31;;;;;;;22.48;10.82;;;;;;;23.30;nan;95439.59;5070200;28;20443;-80
2023/08/20 05:27:14;;;;;;;19.33;11.02;;;;;;;23.53;nan;95462.25;5070072;28;20032;-81
2023/08/20 05:29:40;;;;;;;16.85;10.23;;;;;;;23.54;nan;95463.03;5070585;28;20055;-80
2023/08/20 05:32:06;;;;;;;20.05;9.75;;;;;;;23.62;nan;95479.13;5070216;28;20473;-80
2023/08/20 05:34:32;;;;;;;26.73;11.13;;;;;;;23.64;nan;95476.06;5072637;28;20044;-80
2023/08/20 05:36:57;;;;;;;25.45;12.10;;;;;;;23.57;nan;95449.63;5072571;28;20033;-80
2023/08/20 05:39:25;;;;;;;21.92;12.05;;;;;;;23.59;nan;95466.28;5070638;28;20059;-81
2023/08/20 05:41:51;;;;;;;19.13;10.48;;;;;;;23.83;nan;95495.09;5070404;28;20486;-81
2023/08/20 05:44:16;;;;;;;28.35;11.52;;;;;;;23.44;nan;95427.22;5071287;28;20054;-81
2023/08/20 05:46:43;;;;;;;18.83;10.68;;;;;;;24.00;nan;95499.38;5070501;28;20044;-81
2023/08/20 05:49:08;;;;;;;30.67;11.30;;;;;;;23.51;nan;95423.91;5070698;28;20477;-81
2023/08/20 05:51:34;;;;;;;22.40;10.95;;;;;;;23.94;nan;95482.63;5070832;28;20033;-81
2023/08/20 05:53:59;;;;;;;18.25;10.85;;;;;;;24.01;nan;95492.81;5071348;28;20040;-81
2023/08/20 05:56:25;;;;;;;23.00;10.65;;;;;;;23.93;nan;95472.91;5071299;28;20029;-81
2023/08/20 05:58:51;;;;;;;19.52;10.57;;;;;;;24.16;nan;95505.56;5071823;28;20055;-81
2023/08/20 06:01:16;;;;;;;26.77;10.55;;;;;;;24.08;nan;95480.22;5071324;28;20117;-81
2023/08/20 06:03:41;;;;;;;20.75;10.27;;;;;;;23.88;nan;95442.59;5080546;28;20041;-81
2023/08/20 06:06:07;;;;;;;20.67;9.85;;;;;;;24.13;nan;95477.25;5083081;28;20481;-81
2023/08/20 06:08:32;;;;;;;16.02;9.35;;;;;;;24.03;nan;95464.22;5072610;28;20033;-81
2023/08/20 06:10:58;;;;;;;28.02;10.77;;;;;;;23.87;nan;95433.69;5073746;28;20495;-81
2023/08/20 06:13:23;;;;;;;22.23;10.68;;;;;;;24.21;nan;95480.94;5071835;28;20032;-80
2023/08/20 06:15:49;;;;;;;21.65;9.85;;;;;;;24.30;nan;95488.88;5071257;28;20040;-80
2023/08/20 06:18:14;;;;;;;20.42;9.70;;;;;;;24.06;nan;95449.19;5072217;28;20048;-81
2023/08/20 06:20:40;;;;;;;15.55;8.85;;;;;;;23.83;nan;95403.03;5070530;28;20037;-81
2023/08/20 06:23:06;;;;;;;14.93;9.27;;;;;;;24.31;nan;95474.97;5071645;28;20029;-81
2023/08/20 06:25:31;;;;;;;19.65;9.27;;;;;;;24.39;nan;95482.13;5072047;28;20494;-80
2023/08/20 06:27:57;;;;;;;17.30;9.43;;;;;;;24.49;nan;95500.53;5072426;28;20036;-81
2023/08/20 06:30:22;;;;;;;14.75;8.48;;;;;;;24.47;nan;95508.25;5071400;28;20036;-80
2023/08/20 06:32:48;;;;;;;22.13;8.32;;;;;;;24.48;nan;95498.19;5071189;28;20025;-80
2023/08/20 06:35:13;;;;;;;17.80;8.35;;;;;;;24.49;nan;95486.97;5076512;28;20060;-80
2023/08/20 06:37:40;;;;;;;21.33;9.27;;;;;;;24.42;nan;95456.22;5074156;28;20568;-80
2023/08/20 06:40:06;;;;;;;14.23;8.13;;;;;;;24.61;nan;95478.72;5074337;28;20028;-80
2023/08/20 06:42:32;;;;;;;17.20;8.15;;;;;;;24.57;nan;95474.34;5075689;28;20039;-81
2023/08/20 06:44:57;;;;;;;15.70;9.05;;;;;;;24.74;nan;95486.72;5073465;28;20033;-81
2023/08/20 06:47:23;;;;;;;16.83;8.52;;;;;;;24.80;nan;95482.56;5073109;28;20025;-80
2023/08/20 06:49:50;;;;;;;24.27;9.00;;;;;;;24.89;nan;95486.66;5073535;28;20467;-81
2023/08/20 06:52:15;;;;;;;14.75;9.00;;;;;;;24.87;nan;95482.75;5073177;28;20040;-81
2023/08/20 06:54:41;;;;;;;14.48;7.85;;;;;;;25.18;nan;95509.72;5074939;28;20545;-81
2023/08/20 06:57:06;;;;;;;13.82;8.18;;;;;;;24.87;nan;95450.94;5074001;28;20518;-81
2023/08/20 06:59:31;;;;;;;15.73;8.98;;;;;;;25.29;nan;95512.66;5073783;28;20482;-81
2023/08/20 07:01:57;;;;;;;19.27;9.10;;;;;;;25.19;nan;95470.59;5075606;28;20473;-81
2023/08/20 07:04:22;;;;;;;13.50;8.95;;;;;;;25.10;nan;95448.31;5074081;28;20111;-81
2023/08/20 07:06:48;;;;;;;13.95;8.75;;;;;;;25.46;nan;95495.94;5075041;28;20044;-81
2023/08/20 07:09:13;;;;;;;12.80;8.82;;;;;;;25.45;nan;95477.28;5074323;28;20024;-81
2023/08/20 07:11:39;;;;;;;19.92;9.88;;;;;;;25.55;nan;95485.63;5074637;28;20081;-81
2023/08/20 07:14:04;;;;;;;17.58;8.82;;;;;;;25.48;nan;95465.69;5075344;28;20487;-81
2023/08/20 07:16:31;;;;;;;18.50;8.80;;;;;;;25.35;nan;95441.44;5073827;28;20097;-81
2023/08/20 07:18:57;;;;;;;15.70;8.55;;;;;;;25.58;nan;95470.50;5073823;28;20045;-81
2023/08/20 07:21:22;;;;;;;14.55;8.18;;;;;;;25.67;nan;95484.66;5075440;28;20043;-81
2023/08/20 07:23:48;;;;;;;15.13;8.55;;;;;;;25.85;nan;95498.56;5073163;28;20033;-82
2023/08/20 07:26:13;;;;;;;13.20;7.15;;;;;;;25.70;nan;95462.22;5073866;28;20056;-82
2023/08/20 07:28:59;;;;;;;12.25;6.78;;;;;;;25.82;nan;95464.75;5074135;28;20036;-82
2023/08/20 07:31:29;;;;;;;9.38;6.70;;;;;;;25.70;nan;95443.22;5072377;28;20028;-81
2023/08/20 07:33:56;;;;;;;11.53;7.33;;;;;;;26.18;nan;95508.78;5072198;28;20021;-82
2023/08/20 07:36:23;;;;;;;13.63;7.95;;;;;;;26.06;nan;95480.66;5073364;28;20079;-82
2023/08/20 07:38:49;;;;;;;12.60;7.15;;;;;;;26.34;nan;95502.06;5071510;28;20028;-82
2023/08/20 07:41:15;;;;;;;10.95;6.22;;;;;;;26.25;nan;95473.53;5072258;28;20036;-82
2023/08/20 07:43:41;;;;;;;14.60;7.20;;;;;;;26.11;nan;95450.44;5074264;28;20051;-82
2023/08/20 07:46:08;;;;;;;13.95;6.70;;;;;;;26.32;nan;95473.72;5071346;28;20033;-82
2023/08/20 07:48:37;;;;;;;12.48;6.45;;;;;;;26.59;nan;95494.28;5071320;28;20139;-81
2023/08/20 07:51:03;;;;;;;11.35;6.50;;;;;;;26.70;nan;95505.31;5072211;28;20033;-82
2023/08/20 07:53:30;;;;;;;10.75;6.13;;;;;;;26.60;nan;95484.19;5071922;28;20040;-82
2023/08/20 07:55:56;;;;;;;8.85;5.70;;;;;;;25.93;nan;95383.41;5071559;28;20497;-82
2023/08/20 07:58:22;;;;;;;8.70;6.30;;;;;;;26.59;nan;95475.22;5072092;28;20040;-82
2023/08/20 08:00:47;;;;;;;10.60;6.28;;;;;;;26.72;nan;95473.84;5072522;28;20118;-82
2023/08/20 08:03:14;;;;;;;10.70;6.05;;;;;;;26.68;nan;95455.91;5074390;28;20044;-81
2023/08/20 08:05:40;;;;;;;11.60;5.88;;;;;;;26.89;nan;95491.56;5075070;28;20036;-81
2023/08/20 08:08:06;;;;;;;16.95;6.50;;;;;;;26.96;nan;95471.84;5074743;28;20036;-81
2023/08/20 08:10:31;;;;;;;10.90;6.82;;;;;;;27.21;nan;95494.69;5075042;28;20169;-81
2023/08/20 08:12:57;;;;;;;13.95;7.57;;;;;;;27.07;nan;95457.22;5073566;28;20082;-81
2023/08/20 08:15:22;;;;;;;10.57;6.53;;;;;;;27.13;nan;95484.88;5073318;28;20059;-81
2023/08/20 08:17:48;;;;;;;11.23;6.15;;;;;;;27.22;nan;95480.72;5073943;28;20491;-81
2023/08/20 08:20:13;;;;;;;11.45;6.25;;;;;;;27.21;nan;95483.78;5074939;28;20104;-81
2023/08/20 08:22:39;;;;;;;9.68;6.65;;;;;;;27.33;nan;95499.88;5074243;28;20021;-81
2023/08/20 08:25:05;;;;;;;10.52;5.80;;;;;;;27.36;nan;95499.13;5075064;28;20094;-81
2023/08/20 08:27:30;;;;;;;10.18;5.88;;;;;;;27.17;nan;95472.06;5073192;28;20108;-81
2023/08/20 08:29:56;;;;;;;15.88;5.97;;;;;;;27.43;nan;95493.75;5074634;28;20105;-81
2023/08/20 08:32:22;;;;;;;11.82;5.43;;;;;;;27.37;nan;95481.63;5074888;28;20038;-81
2023/08/20 08:34:47;;;;;;;9.38;5.68;;;;;;;27.07;nan;95421.03;5073441;28;20102;-81
2023/08/20 08:37:12;;;;;;;7.25;5.53;;;;;;;27.57;nan;95493.94;5074059;28;20032;-81
2023/08/20 08:39:38;;;;;;;10.50;5.55;;;;;;;27.58;nan;95483.81;5074197;28;20036;-81
2023/08/20 08:42:05;;;;;;;10.20;6.20;;;;;;;27.61;nan;95492.03;5074385;28;20043;-81
2023/08/20 08:44:36;;;;;;;7.95;5.30;;;;;;;27.43;nan;95477.41;5073458;28;20541;-81
2023/08/20 08:47:03;;;;;;;7.00;4.75;;;;;;;27.73;nan;95492.91;5073700;28;20036;-81
2023/08/20 08:49:30;;;;;;;8.75;5.25;;;;;;;27.54;nan;95451.06;5074543;28;20044;-81
2023/08/20 08:51:59;;;;;;;9.27;5.20;;;;;;;27.36;nan;95439.22;5073825;28;20028;-81
2023/08/20 08:54:26;;;;;;;10.95;5.38;;;;;;;27.79;nan;95491.41;5074567;28;20356;-81
2023/08/20 08:56:51;;;;;;;8.07;4.97;;;;;;;27.90;nan;95484.88;5076874;28;20067;-81
2023/08/20 08:59:17;;;;;;;13.43;4.93;;;;;;;27.50;nan;95433.91;5075450;28;20024;-81
2023/08/20 09:01:42;;;;;;;8.32;5.30;;;;;;;27.77;nan;95471.94;5076434;28;20036;-81
2023/08/20 09:04:08;;;;;;;9.55;4.88;;;;;;;27.72;nan;95440.34;5076030;28;20032;-81
2023/08/20 09:06:47;;;;;;;8.77;4.95;;;;;;;27.86;nan;95453.28;5074165;28;20021;-81
2023/08/20 09:09:13;;;;;;;7.28;5.15;;;;;;;27.93;nan;95475.16;5072551;28;20032;-81
2023/08/20 09:11:39;;;;;;;6.82;4.30;;;;;;;27.97;nan;95478.72;5074226;28;20499;-81
2023/08/20 09:14:04;;;;;;;10.10;4.80;;;;;;;27.84;nan;95458.38;5072593;28;20137;-81
2023/08/20 09:16:31;;;;;;;7.50;4.57;;;;;;;28.06;nan;95481.91;5070389;28;20025;-81
2023/08/20 09:18:59;;;;;;;12.25;4.88;;;;;;;28.14;nan;95480.00;5071639;28;20365;-82
2023/08/20 09:21:30;;;;;;;8.05;4.50;;;;;;;28.10;nan;95474.53;5072495;28;20073;-81
2023/08/20 09:24:02;;;;;;;10.73;4.70;;;;;;;28.23;nan;95478.53;5070495;28;20055;-81
2023/08/20 09:26:27;;;;;;;15.00;4.32;;;;;;;27.90;nan;95429.59;5070363;28;20025;-81
2023/08/20 09:28:55;;;;;;;8.35;4.63;;;;;;;27.91;nan;95410.13;5069562;28;20042;-81
2023/08/20 09:31:37;;;;;;;7.38;4.07;;;;;;;28.08;nan;95424.25;5069926;28;20067;-82
2023/08/20 09:34:03;;;;;;;6.18;3.88;;;;;;;28.51;nan;95488.84;5070044;28;20043;-81
2023/08/20 09:36:33;;;;;;;7.82;4.30;;;;;;;28.28;nan;95450.13;5071593;28;20040;-81
2023/08/20 09:38:59;;;;;;;7.55;4.43;;;;;;;28.69;nan;95486.22;5071148;28;20071;-81
2023/08/20 09:41:25;;;;;;;8.93;4.75;;;;;;;28.04;nan;95381.41;5071556;28;20434;-81
2023/08/20 09:43:57;;;;;;;6.55;4.50;;;;;;;28.66;nan;95478.81;5071198;28;20036;-82
2023/08/20 09:46:25;;;;;;;7.88;4.13;;;;;;;28.57;nan;95456.53;5070035;28;20471;-82
2023/08/20 09:48:54;;;;;;;8.70;4.13;;;;;;;28.70;nan;95458.53;5071597;28;20036;-82
2023/08/20 09:51:25;;;;;;;7.68;3.42;;;;;;;28.78;nan;95471.09;5071785;28;20032;-82
2023/08/20 09:54:19;;;;;;;5.38;3.78;;;;;;;28.58;nan;95452.66;5070617;28;20036;-82
2023/08/20 09:56:51;;;;;;;4.43;3.42;;;;;;;28.78;nan;95443.78;5069121;28;20529;-82
2023/08/20 09:59:17;;;;;;;7.20;3.58;;;;;;;29.24;nan;95417.81;5070075;28;20505;-82
2023/08/20 10:01:44;;;;;;;4.53;3.22;;;;;;;30.24;nan;95477.66;5071655;28;20090;-82
2023/08/20 10:04:11;;;;;;;5.40;3.03;;;;;;;31.01;nan;95434.84;5070269;28;20032;-82
2023/08/20 10:06:37;;;;;;;5.80;3.30;;;;;;;31.74;nan;95404.66;5071548;28;20043;-82
2023/08/20 10:09:02;;;;;;;5.65;3.00;;;;;;;32.55;nan;95424.31;5074217;28;20043;-83
2023/08/20 10:11:28;;;;;;;5.63;3.42;;;;;;;33.45;nan;95458.56;5074025;28;20351;-83
2023/08/20 10:13:54;;;;;;;5.20;2.92;;;;;;;34.17;nan;95467.31;5075647;28;20032;-83
2023/08/20 10:16:21;;;;;;;4.13;2.83;;;;;;;34.58;nan;95455.97;5074459;28;20047;-83
2023/08/20 10:18:47;;;;;;;9.05;3.00;;;;;;;34.84;nan;95441.34;5074333;28;20050;-83
2023/08/20 10:21:13;;;;;;;4.63;2.80;;;;;;;35.43;nan;95445.25;5074935;28;20283;-83
2023/08/20 10:23:44;;;;;;;4.20;3.10;;;;;;;35.46;nan;95409.34;5077302;28;20074;-82
2023/08/20 10:26:10;;;;;;;4.75;3.10;;;;;;;35.51;nan;95408.81;5077640;28;20122;-82
2023/08/20 10:28:36;;;;;;;6.00;2.72;;;;;;;35.84;nan;95395.84;5075339;28;20151;-82
2023/08/20 10:31:07;;;;;;;8.50;3.00;;;;;;;36.47;nan;95455.41;5075361;28;20044;-82
2023/08/20 10:33:54;;;;;;;7.28;3.10;;;;;;;36.79;nan;95441.53;5077093;28;20037;-82
2023/08/20 10:36:28;;;;;;;6.50;2.97;;;;;;;37.00;nan;95462.28;5074194;28;20048;-82
2023/08/20 10:38:56;;;;;;;6.80;2.85;;;;;;;36.86;nan;95443.31;5074786;28;20032;-82
2023/08/20 10:41:29;;;;;;;4.05;2.75;;;;;;;36.36;nan;95430.84;5074819;28;20036;-82
2023/08/20 10:43:58;;;;;;;3.58;2.65;;;;;;;36.82;nan;95446.19;5075575;28;20376;-82
2023/08/20 10:46:26;;;;;;;10.27;2.97;;;;;;;37.02;nan;95446.00;5077341;28;20102;-82
2023/08/20 10:48:52;;;;;;;7.32;3.15;;;;;;;37.23;nan;95453.72;5077150;28;20498;-82
2023/08/20 10:51:24;;;;;;;4.93;2.50;;;;;;;36.81;nan;95397.66;5078408;28;20025;-82
2023/08/20 10:54:10;;;;;;;5.30;2.97;;;;;;;37.46;nan;95445.13;5077711;28;20039;-82
2023/08/20 10:56:45;;;;;;;3.88;2.75;;;;;;;37.48;nan;95441.91;5075725;28;20067;-82
2023/08/20 10:59:17;;;;;;;7.03;2.90;;;;;;;37.66;nan;95442.19;5077319;28;20063;-82
2023/08/20 11:01:48;;;;;;;4.88;3.20;;;;;;;37.64;nan;95418.91;5075288;28;20554;-82
2023/08/20 11:04:15;;;;;;;;;;;;;;;37.94;nan;95440.47;5076288;28;20036;-82
2023/08/20 11:06:41;;;;;;;9.80;3.28;;;;;;;37.93;nan;95427.84;5075844;28;19946;-82
2023/08/20 11:09:06;;;;;;;5.05;2.50;;;;;;;37.94;nan;95426.66;5078160;28;20165;-82
2023/08/20 11:11:32;;;;;;;6.55;2.92;;;;;;;37.75;nan;95359.25;5076437;28;20032;-82
2023/08/20 11:14:07;;;;;;;6.35;3.10;;;;;;;38.38;nan;95427.56;5081303;28;20085;-82
2023/08/20 11:16:33;;;;;;;3.90;2.50;;;;;;;38.37;nan;95428.03;5088953;28;20039;-82
2023/08/20 11:18:58;;;;;;;6.45;3.20;;;;;;;38.28;nan;95386.41;5076384;28;20060;-82
2023/08/20 11:21:24;;;;;;;5.25;2.50;;;;;;;38.08;nan;95381.13;5076962;28;20504;-82
2023/08/20 11:23:49;;;;;;;7.10;2.95;;;;;;;38.27;nan;95416.09;5077133;28;20051;-82
2023/08/20 11:26:15;;;;;;;5.40;2.65;;;;;;;38.17;nan;95386.75;5076902;28;20055;-82
2023/08/20 11:28:46;;;;;;;11.32;3.33;;;;;;;38.08;nan;95389.44;5077214;28;20028;-82
2023/08/20 11:31:11;;;;;;;5.43;3.28;;;;;;;38.16;nan;95412.88;5075730;28;20039;-82
2023/08/20 11:33:37;;;;;;;5.55;2.65;;;;;;;38.04;nan;95400.63;5073511;28;20036;-82
2023/08/20 11:36:05;;;;;;;7.07;3.15;;;;;;;38.34;nan;95417.84;5073085;28;20104;-82
2023/08/20 11:38:30;;;;;;;6.13;2.45;;;;;;;38.07;nan;95374.06;5072935;28;20531;-82
2023/08/20 11:40:59;;;;;;;8.27;2.90;;;;;;;38.44;nan;95405.63;5074086;28;20068;-83